createdAt,value
2023-04-13T00:03:54.972Z,100155.34
2023-04-13T00:08:59.616Z,100148.25
2023-04-13T00:14:03.488Z,100148.56
2023-04-13T00:19:08.583Z,100143.13
2023-04-13T00:24:12.593Z,100143.50
2023-04-13T00:29:16.728Z,100128.63
2023-04-13T00:34:20.648Z,100122.59
2023-04-13T00:39:24.553Z,100125.25
2023-04-13T00:44:29.364Z,100112.13
2023-04-13T00:49:37.144Z,100098.97
2023-04-13T00:54:41.224Z,100088.25
2023-04-13T00:59:45.514Z,100067.97
2023-04-13T01:04:50.446Z,100059.84
2023-04-13T01:10:20.540Z,100059.38
2023-04-13T01:15:29.910Z,100047.03
2023-04-13T01:20:36.519Z,100045.00
2023-04-13T01:25:52.601Z,100029.75
2023-04-13T01:31:02.222Z,100022.13
2023-04-13T01:36:06.122Z,100008.56
2023-04-13T01:41:10.345Z,100012.25
2023-04-13T01:46:23.506Z,100003.03
2023-04-13T01:51:52.215Z,99993.00
2023-04-13T01:57:01.056Z,99978.63
2023-04-13T02:02:05.223Z,99953.63
2023-04-13T02:07:09.626Z,99946.06
2023-04-13T02:12:17.535Z,99950.94
2023-04-13T02:17:21.429Z,99949.38
2023-04-13T02:22:25.658Z,99931.25
2023-04-13T02:27:31.472Z,99924.38
2023-04-13T02:32:38.272Z,99902.31
2023-04-13T02:37:42.560Z,99919.53
2023-04-13T02:42:50.501Z,99921.91
2023-04-13T02:47:54.781Z,99919.41
2023-04-13T02:52:59.105Z,99905.56
2023-04-13T02:58:07.244Z,99874.09
2023-04-13T03:03:12.344Z,99897.88
2023-04-13T03:08:21.936Z,99887.19
2023-04-13T03:13:38.669Z,99910.13
2023-04-13T03:18:42.906Z,99903.78
2023-04-13T03:23:47.051Z,99902.13
2023-04-13T03:28:53.283Z,99906.19
2023-04-13T03:33:59.432Z,99877.47
2023-04-13T03:39:05.985Z,99883.28
2023-04-13T03:44:13.671Z,99882.44
2023-04-13T03:49:18.472Z,99877.50
2023-04-13T03:54:22.413Z,99865.06
2023-04-13T03:59:27.496Z,99865.19
2023-04-13T04:04:32.124Z,99838.56
2023-04-13T04:09:36.826Z,99827.81
2023-04-13T04:14:41.902Z,99824.53
2023-04-13T04:19:52.192Z,99833.19
2023-04-13T04:25:02.696Z,99833.47
2023-04-13T04:30:12.189Z,99830.25
2023-04-13T04:35:27.033Z,99826.94
2023-04-13T04:40:36.229Z,99823.72
2023-04-13T04:45:47.790Z,99837.03
2023-04-13T04:50:56.830Z,99830.63
2023-04-13T04:56:05.685Z,99815.91
2023-04-13T05:01:23.509Z,99796.25
2023-04-13T05:06:34.440Z,99805.00
2023-04-13T05:11:40.057Z,99812.50
2023-04-13T05:16:46.854Z,99771.84
2023-04-13T05:22:02.083Z,99805.38
2023-04-13T05:27:13.995Z,99795.53
2023-04-13T05:32:18.131Z,99805.16
2023-04-13T05:37:24.394Z,99811.06
2023-04-13T05:42:29.185Z,99834.75
2023-04-13T05:47:34.720Z,99832.03
2023-04-13T05:52:46.530Z,99826.91
2023-04-13T05:57:52.219Z,99824.50
2023-04-13T06:03:00.197Z,99836.88
2023-04-13T06:08:04.599Z,99838.72
2023-04-13T06:13:09.046Z,99872.19
2023-04-13T06:18:12.964Z,99803.59
2023-04-13T06:23:17.342Z,99819.53
2023-04-13T06:28:21.498Z,99867.09
2023-04-13T06:33:28.568Z,99883.50
2023-04-13T06:38:33.167Z,99885.78
2023-04-13T06:43:43.656Z,99877.81
2023-04-13T06:49:10.634Z,99892.47
2023-04-13T06:54:16.196Z,99881.03
2023-04-13T06:59:24.773Z,99846.00
2023-04-13T07:04:32.358Z,99892.94
2023-04-13T07:09:40.124Z,99883.66
2023-04-13T07:14:44.321Z,99887.31
2023-04-13T07:19:51.682Z,99898.56
2023-04-13T07:24:56.451Z,99882.88
2023-04-13T07:30:02.063Z,99887.91
2023-04-13T07:35:13.213Z,99888.41
2023-04-13T07:40:20.006Z,99879.03
2023-04-13T07:45:30.084Z,99881.63
2023-04-13T07:50:35.609Z,99833.66
2023-04-13T07:55:40.025Z,99875.00
2023-04-13T08:00:45.013Z,99856.75
2023-04-13T08:05:49.584Z,99865.91
2023-04-13T08:10:56.121Z,99871.34
2023-04-13T08:16:01.986Z,99813.13
2023-04-13T08:21:16.026Z,99858.75
2023-04-13T08:26:23.756Z,99845.13
2023-04-13T08:31:27.881Z,99865.06
2023-04-13T08:36:38.406Z,99868.84
2023-04-13T08:41:49.584Z,99865.19
2023-04-13T08:46:57.505Z,99822.09
2023-04-13T08:52:09.732Z,99874.09
2023-04-13T08:57:17.534Z,99891.00
2023-04-13T09:02:32.636Z,99889.81
2023-04-13T09:07:41.370Z,99903.84
2023-04-13T09:12:53.438Z,99909.41
2023-04-13T09:18:07.152Z,99914.50
2023-04-13T09:23:17.181Z,99909.28
2023-04-13T09:28:22.671Z,99877.41
2023-04-13T09:33:26.965Z,99895.25
2023-04-13T09:38:34.262Z,99895.44
2023-04-13T09:43:39.867Z,99832.34
2023-04-13T09:48:43.855Z,99888.81
2023-04-13T09:53:49.026Z,99903.53
2023-04-13T09:58:54.193Z,99840.97
2023-04-13T10:03:58.577Z,99907.88
2023-04-13T10:09:03.210Z,99907.50
2023-04-13T10:14:12.804Z,99867.59
2023-04-13T10:19:21.006Z,99927.75
2023-04-13T10:24:26.062Z,99922.19
2023-04-13T10:29:33.680Z,99917.31
2023-04-13T10:34:40.641Z,99853.00
2023-04-13T10:39:44.921Z,99917.03
2023-04-13T10:44:50.855Z,99917.84
2023-04-13T10:49:54.723Z,99938.63
2023-04-13T10:54:58.838Z,99932.44
2023-04-13T11:00:05.275Z,99856.72
2023-04-13T11:05:15.705Z,99938.50
2023-04-13T11:10:30.850Z,99928.53
2023-04-13T11:15:34.801Z,99938.13
2023-04-13T11:20:41.442Z,99937.31
2023-04-13T11:26:02.296Z,99938.63
2023-04-13T11:31:08.388Z,99948.84
2023-04-13T11:36:12.274Z,99941.56
2023-04-13T11:41:17.364Z,99943.22
2023-04-13T11:46:28.837Z,99947.38
2023-04-13T11:51:33.849Z,99955.09
2023-04-13T11:56:39.999Z,99950.69
2023-04-13T12:01:58.107Z,99963.69
2023-04-13T12:07:15.693Z,99961.38
2023-04-13T12:22:52.257Z,99966.34
2023-04-13T12:28:00.844Z,99977.22
2023-04-13T12:33:04.992Z,99915.84
2023-04-13T12:38:09.934Z,99976.81
2023-04-13T12:43:13.850Z,99974.19
2023-04-13T12:48:18.082Z,99907.94
2023-04-13T12:53:22.386Z,99976.81
2023-04-13T12:58:27.366Z,99976.06
2023-04-13T13:03:31.506Z,99973.22
2023-04-13T13:08:38.419Z,99979.16
2023-04-13T13:13:43.983Z,99969.47
2023-04-13T13:18:51.312Z,99975.00
2023-04-13T13:23:55.410Z,99969.63
2023-04-13T13:28:59.935Z,99979.00
2023-04-13T13:34:04.202Z,99975.41
2023-04-13T13:39:08.297Z,99974.59
2023-04-13T13:44:12.264Z,99987.47
2023-04-13T13:49:16.618Z,99984.56
2023-04-13T13:54:39.099Z,99983.22
2023-04-13T13:59:44.057Z,99984.97
2023-04-13T14:04:48.120Z,99971.25
2023-04-13T14:09:52.019Z,99916.22
2023-04-13T14:14:57.013Z,99978.16
2023-04-13T14:20:03.032Z,99987.19
2023-04-13T14:25:08.269Z,99987.81
2023-04-13T14:30:12.765Z,99988.06
2023-04-13T14:35:16.987Z,99978.72
2023-04-13T14:40:23.193Z,99984.28
2023-04-13T14:45:27.236Z,99983.84
2023-04-13T14:50:31.919Z,99996.28
2023-04-13T14:55:35.866Z,99932.47
2023-04-13T15:00:39.895Z,99994.19
2023-04-13T15:05:49.633Z,99971.59
2023-04-13T15:10:54.465Z,99992.25
2023-04-13T15:15:58.637Z,99979.69
2023-04-13T15:21:06.137Z,99967.94
2023-04-13T15:26:19.916Z,99985.25
2023-04-13T15:31:23.885Z,99973.50
2023-04-13T15:36:29.550Z,99971.19
2023-04-13T15:41:33.527Z,99972.09
2023-04-13T15:46:37.859Z,99961.09
2023-04-13T15:51:41.888Z,99963.88
2023-04-13T15:56:46.210Z,99958.88
2023-04-13T16:01:51.966Z,99948.06
2023-04-13T16:07:12.157Z,99946.97
2023-04-13T16:12:18.566Z,99917.94
2023-04-13T16:17:31.810Z,99934.41
2023-04-13T16:22:37.316Z,99920.34
2023-04-13T16:27:44.916Z,99921.34
2023-04-13T16:32:50.825Z,99928.00
2023-04-13T16:37:55.167Z,99930.59
2023-04-13T16:43:00.770Z,99922.00
2023-04-13T16:48:05.908Z,99911.19
2023-04-13T16:53:11.891Z,99828.69
2023-04-13T16:58:15.784Z,99896.16
2023-04-13T17:03:20.155Z,99890.25
2023-04-13T17:08:24.519Z,99882.56
2023-04-13T17:13:28.541Z,99887.56
2023-04-13T17:18:32.693Z,99872.22
2023-04-13T17:23:37.804Z,99868.34
2023-04-13T17:28:42.042Z,99854.16
2023-04-13T17:33:47.269Z,99842.97
2023-04-13T17:38:53.694Z,99841.94
2023-04-13T17:43:57.562Z,99843.72
2023-04-13T17:49:01.882Z,99854.91
2023-04-13T17:54:08.563Z,99809.13
2023-04-13T17:59:15.487Z,99825.94
2023-04-13T18:04:20.534Z,99835.28
2023-04-13T18:09:25.608Z,99830.22
2023-04-13T18:14:29.580Z,99801.19
2023-04-13T18:19:33.588Z,99826.53
2023-04-13T18:24:37.871Z,99807.13
2023-04-13T18:29:42.017Z,99806.56
2023-04-13T18:34:45.818Z,99817.03
2023-04-13T18:39:49.865Z,99813.59
2023-04-13T18:44:53.730Z,99810.38
2023-04-13T18:49:58.972Z,99816.66
2023-04-13T18:55:02.853Z,99831.53
2023-04-13T19:00:11.179Z,99845.94
2023-04-13T19:05:15.083Z,99851.13
2023-04-13T19:10:19.850Z,99850.75
2023-04-13T19:15:25.908Z,99823.66
2023-04-13T19:20:30.738Z,99847.13
2023-04-13T19:25:34.762Z,99854.53
2023-04-13T19:30:39.014Z,99838.47
2023-04-13T19:35:43.048Z,99785.06
2023-04-13T19:40:47.090Z,99864.00
2023-04-13T19:45:51.387Z,99860.19
2023-04-13T19:50:55.339Z,99864.22
2023-04-13T19:55:59.241Z,99859.28
2023-04-13T20:01:05.714Z,99863.31
2023-04-13T20:06:10.776Z,99845.97
2023-04-13T20:11:14.753Z,99866.22
2023-04-13T20:16:19.165Z,99870.56
2023-04-13T20:21:23.219Z,99854.97
2023-04-13T20:26:30.631Z,99842.97
2023-04-13T20:31:35.183Z,99833.31
2023-04-13T20:36:39.359Z,99822.16
2023-04-13T20:41:51.614Z,99826.97
2023-04-13T20:46:55.523Z,99833.22
2023-04-13T20:52:04.804Z,99829.38
2023-04-13T20:57:09.891Z,99833.41
2023-04-13T21:02:15.111Z,99844.47
2023-04-13T21:07:19.988Z,99831.94
2023-04-13T21:12:26.349Z,99822.78
2023-04-13T21:17:33.028Z,99827.88
2023-04-13T21:22:37.559Z,99808.88
2023-04-13T21:27:41.775Z,99811.47
2023-04-13T21:32:46.260Z,99828.53
2023-04-13T21:37:50.346Z,99832.28
2023-04-13T21:42:54.167Z,99835.78
2023-04-13T21:47:58.325Z,99847.53
2023-04-13T21:53:02.326Z,99804.88
2023-04-13T21:58:06.210Z,99875.34
2023-04-13T22:03:11.071Z,99868.84
2023-04-13T22:08:15.001Z,99876.34
2023-04-13T22:13:18.920Z,99896.81
2023-04-13T22:18:22.909Z,99874.63
2023-04-13T22:23:27.654Z,99900.56
2023-04-13T22:28:32.535Z,99900.50
2023-04-13T22:33:37.087Z,99911.91
2023-04-13T22:38:41.192Z,99818.19
2023-04-13T22:43:45.055Z,99891.31
2023-04-13T22:48:49.173Z,99906.00
2023-04-13T22:53:52.989Z,99924.22
2023-04-13T22:58:56.928Z,99910.19
2023-04-13T23:04:01.129Z,99901.44
2023-04-13T23:09:05.358Z,99912.72
2023-04-13T23:14:09.324Z,99917.88
2023-04-13T23:19:13.334Z,99929.41
2023-04-13T23:24:17.367Z,99860.41
2023-04-13T23:29:22.948Z,99949.34
2023-04-13T23:34:26.879Z,99949.75
2023-04-13T23:39:30.834Z,99945.63
2023-04-13T23:44:34.591Z,99933.28
2023-04-13T23:49:38.646Z,99944.53
2023-04-13T23:54:43.633Z,99963.72
2023-04-13T23:59:47.438Z,99985.19
